createdAt,value
2019-04-29T00:00:00.471Z,10.07
2019-04-29T00:02:36.496Z,10.10
2019-04-29T00:05:06.285Z,10.11
2019-04-29T00:07:34.989Z,10.09
2019-04-29T00:10:05.048Z,10.08
2019-04-29T00:12:34.348Z,10.03
2019-04-29T00:15:14.503Z,10.01
2019-04-29T00:17:53.226Z,10.02
2019-04-29T00:20:31.538Z,10.05
2019-04-29T00:23:01.147Z,10.07
2019-04-29T00:25:30.447Z,10.08
2019-04-29T00:27:59.435Z,10.14
2019-04-29T00:30:28.323Z,10.07
2019-04-29T00:32:57.224Z,10.14
2019-04-29T00:35:26.790Z,10.11
2019-04-29T00:38:14.811Z,10.09
2019-04-29T00:41:02.813Z,10.15
2019-04-29T00:43:42.488Z,10.07
2019-04-29T00:46:12.187Z,10.06
2019-04-29T00:48:41.138Z,10.06
2019-04-29T00:51:10.167Z,10.08
2019-04-29T00:53:39.963Z,10.08
2019-04-29T00:56:14.283Z,10.05
2019-04-29T00:58:43.172Z,10.11
2019-04-29T01:01:15.387Z,10.06
2019-04-29T01:03:44.020Z,10.06
2019-04-29T01:06:12.730Z,10.10
2019-04-29T01:08:41.707Z,10.07
2019-04-29T01:11:10.323Z,10.11
2019-04-29T01:13:39.387Z,10.10
2019-04-29T01:16:08.383Z,10.10
2019-04-29T01:18:37.581Z,10.12
2019-04-29T01:21:06.575Z,10.12
2019-04-29T01:23:35.202Z,10.02
2019-04-29T01:26:16.131Z,9.95
2019-04-29T01:28:49.604Z,9.97
2019-04-29T01:31:27.025Z,10.00
2019-04-29T01:34:00.368Z,10.00
2019-04-29T01:36:38.223Z,10.00
2019-04-29T01:39:09.750Z,9.98
2019-04-29T01:41:51.041Z,9.98
2019-04-29T01:44:19.765Z,10.00
2019-04-29T01:46:48.636Z,9.92
2019-04-29T01:49:17.295Z,9.85
2019-04-29T01:51:45.926Z,9.86
2019-04-29T01:54:15.516Z,9.89
2019-04-29T01:56:45.118Z,9.90
2019-04-29T01:59:13.746Z,9.84
2019-04-29T02:01:43.008Z,9.88
2019-04-29T02:04:11.630Z,9.85
2019-04-29T02:06:40.600Z,9.86
2019-04-29T02:09:13.453Z,9.84
2019-04-29T02:11:42.121Z,9.88
2019-04-29T02:14:11.191Z,9.89
2019-04-29T02:16:39.764Z,9.92
2019-04-29T02:19:08.430Z,9.90
2019-04-29T02:21:37.311Z,9.99
2019-04-29T02:24:14.805Z,9.92
2019-04-29T02:26:43.441Z,9.93
2019-04-29T02:29:12.385Z,9.95
2019-04-29T02:31:43.029Z,9.98
2019-04-29T02:34:12.007Z,9.98
2019-04-29T02:36:41.002Z,10.00
2019-04-29T02:39:28.941Z,10.00
2019-04-29T02:42:16.060Z,10.07
2019-04-29T02:44:44.671Z,10.10
2019-04-29T02:47:13.339Z,10.11
2019-04-29T02:49:42.411Z,10.13
2019-04-29T02:52:11.037Z,10.13
2019-04-29T02:54:39.718Z,10.12
2019-04-29T02:57:27.747Z,10.20
2019-04-29T03:00:01.265Z,10.19
2019-04-29T03:02:44.876Z,10.22
2019-04-29T03:05:39.795Z,10.23
2019-04-29T03:08:06.487Z,10.16
2019-04-29T03:10:35.111Z,10.21
2019-04-29T03:13:04.096Z,10.20
2019-04-29T03:15:34.991Z,10.23
2019-04-29T03:18:04.027Z,10.26
2019-04-29T03:20:52.120Z,10.28
2019-04-29T03:23:22.192Z,10.30
2019-04-29T03:25:50.886Z,10.24
2019-04-29T03:28:19.600Z,10.23
2019-04-29T03:30:48.964Z,10.19
2019-04-29T03:33:17.611Z,10.20
2019-04-29T03:35:46.274Z,10.21
2019-04-29T03:38:15.534Z,10.28
2019-04-29T03:40:44.533Z,10.28
2019-04-29T03:43:13.501Z,10.26
2019-04-29T03:45:42.721Z,10.29
2019-04-29T03:48:11.736Z,10.29
2019-04-29T03:50:40.707Z,10.37
2019-04-29T03:53:09.706Z,10.36
2019-04-29T03:55:40.492Z,10.41
2019-04-29T03:58:08.733Z,10.36
2019-04-29T04:00:37.745Z,10.40
2019-04-29T04:03:16.275Z,10.42
2019-04-29T04:06:07.335Z,10.47
2019-04-29T04:08:39.715Z,10.44
2019-04-29T04:11:08.705Z,10.47
2019-04-29T04:13:37.716Z,10.49
2019-04-29T04:16:08.338Z,10.55
2019-04-29T04:18:37.354Z,10.52
2019-04-29T04:21:06.416Z,10.44
2019-04-29T04:23:35.447Z,10.43
2019-04-29T04:26:04.077Z,10.33
2019-04-29T04:28:32.990Z,10.25
2019-04-29T04:31:06.254Z,10.25
2019-04-29T04:33:32.714Z,10.19
2019-04-29T04:36:01.497Z,10.17
2019-04-29T04:38:30.483Z,10.20
2019-04-29T04:41:03.373Z,10.22
2019-04-29T04:43:32.379Z,10.18
2019-04-29T04:46:01.114Z,10.16
2019-04-29T04:48:30.363Z,10.17
2019-04-29T04:50:59.362Z,10.21
2019-04-29T04:53:28.087Z,10.20
2019-04-29T04:55:59.480Z,10.20
2019-04-29T04:58:28.387Z,10.16
2019-04-29T05:00:57.380Z,10.05
2019-04-29T05:03:27.653Z,10.03
2019-04-29T05:05:56.494Z,10.05
2019-04-29T05:08:25.171Z,10.03
2019-04-29T05:10:53.807Z,10.06
2019-04-29T05:13:28.377Z,10.02
2019-04-29T05:15:53.394Z,9.89
2019-04-29T05:18:22.287Z,9.88
2019-04-29T05:20:51.279Z,9.82
2019-04-29T05:23:20.267Z,9.83
2019-04-29T05:25:49.157Z,9.78
2019-04-29T05:28:17.796Z,9.67
2019-04-29T05:30:46.738Z,9.74
2019-04-29T05:33:15.718Z,9.60
2019-04-29T05:36:03.741Z,9.53
2019-04-29T05:38:42.105Z,9.33
2019-04-29T05:41:11.483Z,9.20
2019-04-29T05:43:46.405Z,9.16
2019-04-29T05:46:27.813Z,9.21
2019-04-29T05:48:56.803Z,9.23
2019-04-29T05:51:43.783Z,9.39
2019-04-29T05:54:13.445Z,9.20
2019-04-29T05:56:42.147Z,9.20
2019-04-29T05:59:12.900Z,9.26
2019-04-29T06:01:42.795Z,9.29
2019-04-29T06:04:16.250Z,9.26
2019-04-29T06:06:42.455Z,9.23
2019-04-29T06:09:11.509Z,9.40
2019-04-29T06:11:41.810Z,9.27
2019-04-29T06:14:10.699Z,9.45
2019-04-29T06:16:39.322Z,9.32
2019-04-29T06:19:08.296Z,9.38
2019-04-29T06:21:36.929Z,9.60
2019-04-29T06:24:06.467Z,9.79
2019-04-29T06:26:35.647Z,9.96
2019-04-29T06:29:06.087Z,9.96
2019-04-29T06:31:35.289Z,10.10
2019-04-29T06:34:05.333Z,9.86
2019-04-29T06:36:34.711Z,10.00
2019-04-29T06:39:06.166Z,9.99
2019-04-29T06:41:34.797Z,10.01
2019-04-29T06:44:06.677Z,10.12
2019-04-29T06:46:34.576Z,10.09
2019-04-29T06:49:10.559Z,10.25
2019-04-29T06:51:34.209Z,10.35
2019-04-29T06:54:02.881Z,10.42
2019-04-29T06:56:31.784Z,10.49
2019-04-29T06:59:00.785Z,10.55
2019-04-29T07:01:33.108Z,10.49
2019-04-29T07:04:01.408Z,10.44
2019-04-29T07:06:30.120Z,10.56
2019-04-29T07:08:59.104Z,10.65
2019-04-29T07:11:31.892Z,10.74
2019-04-29T07:13:59.333Z,10.91
2019-04-29T07:16:31.942Z,10.95
2019-04-29T07:18:59.258Z,10.90
2019-04-29T07:21:28.167Z,11.03
2019-04-29T07:23:57.063Z,11.29
2019-04-29T07:26:25.958Z,11.25
2019-04-29T07:28:55.627Z,11.21
2019-04-29T07:31:28.146Z,11.17
2019-04-29T07:33:57.906Z,11.10
2019-04-29T07:36:26.329Z,10.99
2019-04-29T07:38:56.609Z,10.87
2019-04-29T07:41:25.851Z,10.85
2019-04-29T07:43:54.463Z,10.94
2019-04-29T07:46:56.066Z,11.10
2019-04-29T07:49:17.318Z,11.03
2019-04-29T07:51:46.511Z,11.42
2019-04-29T07:54:16.374Z,11.77
2019-04-29T07:56:45.958Z,11.66
2019-04-29T07:59:14.655Z,11.81
2019-04-29T08:01:43.631Z,12.19
2019-04-29T08:04:12.313Z,12.28
2019-04-29T08:06:43.047Z,12.60
2019-04-29T08:09:12.016Z,12.29
2019-04-29T08:11:41.445Z,12.17
2019-04-29T08:14:10.053Z,12.06
2019-04-29T08:16:38.665Z,12.30
2019-04-29T08:19:07.896Z,12.21
2019-04-29T08:21:36.887Z,12.06
2019-04-29T08:24:05.646Z,12.03
2019-04-29T08:26:38.167Z,12.16
2019-04-29T08:29:05.413Z,12.46
2019-04-29T08:31:34.313Z,12.52
2019-04-29T08:34:03.297Z,12.54
2019-04-29T08:36:32.553Z,12.82
2019-04-29T08:39:08.370Z,12.94
2019-04-29T08:41:32.115Z,12.81
2019-04-29T08:44:18.983Z,13.16
2019-04-29T08:47:12.848Z,12.92
2019-04-29T08:49:41.797Z,12.88
2019-04-29T08:52:10.435Z,12.84
2019-04-29T08:54:39.374Z,12.89
2019-04-29T08:57:08.262Z,12.89
2019-04-29T08:59:37.367Z,13.10
2019-04-29T09:02:10.198Z,13.07
2019-04-29T09:04:37.003Z,13.01
2019-04-29T09:07:12.492Z,13.09
2019-04-29T09:09:36.608Z,13.23
2019-04-29T09:12:05.305Z,13.45
2019-04-29T09:14:33.945Z,13.44
2019-04-29T09:17:06.119Z,13.38
2019-04-29T09:19:33.207Z,13.32
2019-04-29T09:22:04.225Z,13.70
2019-04-29T09:24:33.153Z,13.62
2019-04-29T09:27:09.649Z,13.63
2019-04-29T09:29:39.530Z,13.96
2019-04-29T09:32:08.231Z,13.71
2019-04-29T09:34:36.927Z,13.96
2019-04-29T09:37:05.639Z,13.91
2019-04-29T09:39:43.261Z,14.25
2019-04-29T09:42:32.450Z,14.22
2019-04-29T09:45:24.156Z,14.14
2019-04-29T09:47:50.816Z,14.23
2019-04-29T09:50:19.527Z,14.25
2019-04-29T09:52:48.131Z,14.25
2019-04-29T09:55:18.783Z,14.41
2019-04-29T09:57:48.011Z,14.64
2019-04-29T10:00:51.193Z,15.09
2019-04-29T10:03:31.537Z,15.18
2019-04-29T10:06:08.357Z,15.44
2019-04-29T10:08:36.999Z,15.39
2019-04-29T10:11:06.795Z,15.74
2019-04-29T10:13:35.450Z,15.82
2019-04-29T10:16:14.919Z,15.72
2019-04-29T10:18:52.156Z,16.13
2019-04-29T10:21:23.004Z,16.39
2019-04-29T10:23:51.768Z,15.97
2019-04-29T10:26:20.781Z,16.42
2019-04-29T10:28:54.947Z,16.30
2019-04-29T10:31:23.987Z,16.55
2019-04-29T10:33:55.119Z,15.95
2019-04-29T10:36:26.085Z,16.10
2019-04-29T10:38:55.499Z,16.51
2019-04-29T10:41:32.045Z,16.74
2019-04-29T10:44:16.669Z,16.83
2019-04-29T10:47:04.184Z,16.39
2019-04-29T10:49:39.358Z,16.84
2019-04-29T10:52:08.057Z,16.35
2019-04-29T10:54:36.693Z,16.73
2019-04-29T10:57:05.738Z,17.03
2019-04-29T10:59:40.628Z,16.55
2019-04-29T11:02:35.090Z,16.75
2019-04-29T11:05:36.055Z,17.08
2019-04-29T11:08:33.580Z,16.75
2019-04-29T11:11:02.445Z,16.97
2019-04-29T11:13:31.047Z,17.29
2019-04-29T11:16:00.035Z,17.28
2019-04-29T11:18:29.333Z,17.93
2019-04-29T11:20:57.968Z,17.83
2019-04-29T11:23:50.599Z,17.75
2019-04-29T11:26:36.926Z,17.50
2019-04-29T11:29:09.203Z,17.78
2019-04-29T11:31:38.131Z,16.91
2019-04-29T11:34:23.102Z,17.39
2019-04-29T11:36:51.992Z,17.96
2019-04-29T11:39:20.883Z,18.12
2019-04-29T11:41:50.086Z,18.39
2019-04-29T11:44:21.837Z,16.94
2019-04-29T11:46:50.668Z,17.36
2019-04-29T11:49:22.658Z,16.83
2019-04-29T11:52:08.696Z,17.03
2019-04-29T11:54:22.739Z,17.02
2019-04-29T11:56:51.724Z,17.22
2019-04-29T11:59:37.971Z,17.44
2019-04-29T12:02:44.666Z,17.60
2019-04-29T12:05:08.763Z,17.42
2019-04-29T12:07:35.726Z,16.35
2019-04-29T12:10:06.592Z,17.13
2019-04-29T12:12:35.596Z,18.02
2019-04-29T12:15:20.797Z,17.55
2019-04-29T12:18:07.690Z,18.23
2019-04-29T12:20:50.118Z,17.54
2019-04-29T12:23:19.149Z,18.01
2019-04-29T12:25:47.773Z,17.19
2019-04-29T12:28:19.143Z,16.79
2019-04-29T12:30:48.806Z,17.34
2019-04-29T12:33:25.794Z,17.70
2019-04-29T12:36:03.404Z,17.31
2019-04-29T12:38:51.580Z,17.45
2019-04-29T12:41:54.380Z,17.33
2019-04-29T12:44:51.448Z,17.05
2019-04-29T12:47:26.677Z,17.38
2019-04-29T12:49:54.970Z,17.32
2019-04-29T12:52:24.476Z,17.50
2019-04-29T12:54:53.467Z,17.98
2019-04-29T12:57:23.459Z,18.03
2019-04-29T12:59:54.664Z,17.24
2019-04-29T13:02:45.882Z,17.24
2019-04-29T13:05:23.175Z,16.60
2019-04-29T13:08:03.801Z,16.40
2019-04-29T13:10:51.512Z,16.99
2019-04-29T13:13:21.991Z,17.66
2019-04-29T13:16:22.225Z,17.83
2019-04-29T13:19:14.473Z,17.70
2019-04-29T13:21:40.549Z,18.08
2019-04-29T13:24:22.062Z,17.46
2019-04-29T13:26:42.593Z,17.47
2019-04-29T13:29:09.914Z,17.45
2019-04-29T13:31:39.360Z,17.02
2019-04-29T13:34:23.707Z,16.45
2019-04-29T13:36:41.378Z,16.57
2019-04-29T13:39:10.390Z,17.22
2019-04-29T13:41:56.120Z,16.96
2019-04-29T13:44:09.934Z,16.76
2019-04-29T13:46:56.597Z,16.71
2019-04-29T13:49:32.870Z,16.60
2019-04-29T13:52:02.269Z,17.49
2019-04-29T13:54:30.868Z,17.84
2019-04-29T13:57:07.710Z,17.52
2019-04-29T13:59:42.023Z,17.78
2019-04-29T14:02:33.442Z,17.79
2019-04-29T14:05:03.423Z,17.92
2019-04-29T14:07:32.378Z,17.57
2019-04-29T14:10:01.280Z,17.70
2019-04-29T14:15:00.688Z,17.93
2019-04-29T14:17:31.775Z,17.49
2019-04-29T14:20:00.424Z,17.98
2019-04-29T14:22:29.500Z,17.50
2019-04-29T14:24:59.072Z,17.44
2019-04-29T14:27:27.725Z,17.43
2019-04-29T14:29:56.697Z,17.52
2019-04-29T14:32:36.087Z,18.11
2019-04-29T14:35:07.122Z,17.16
2019-04-29T14:37:34.915Z,17.56
2019-04-29T14:40:07.594Z,18.27
2019-04-29T14:42:57.994Z,17.94
2019-04-29T14:45:44.272Z,17.94
2019-04-29T14:48:22.033Z,17.72
2019-04-29T14:50:54.253Z,17.21
2019-04-29T14:53:24.146Z,18.13
2019-04-29T14:55:52.586Z,18.09
2019-04-29T14:58:21.884Z,18.01
2019-04-29T15:01:16.039Z,18.56
2019-04-29T15:04:18.336Z,17.59
2019-04-29T15:06:43.438Z,17.67
2019-04-29T15:09:17.193Z,17.91
2019-04-29T15:11:54.456Z,17.61
2019-04-29T15:14:48.622Z,17.42
2019-04-29T15:17:31.926Z,18.02
2019-04-29T15:20:12.312Z,17.98
2019-04-29T15:22:41.615Z,18.12
2019-04-29T15:25:11.118Z,17.56
2019-04-29T15:27:40.014Z,17.07
2019-04-29T15:30:09.831Z,17.78
2019-04-29T15:32:38.717Z,18.10
2019-04-29T15:35:07.811Z,17.74
2019-04-29T15:37:36.441Z,17.74
2019-04-29T15:40:06.005Z,17.96
2019-04-29T15:42:37.813Z,17.25
2019-04-29T15:45:06.061Z,17.64
2019-04-29T15:47:34.750Z,17.45
2019-04-29T15:50:18.372Z,17.71
2019-04-29T15:52:35.211Z,17.06
2019-04-29T15:55:04.958Z,17.91
2019-04-29T15:57:33.878Z,17.46
2019-04-29T16:00:20.234Z,16.92
2019-04-29T16:02:35.911Z,17.27
2019-04-29T16:05:23.590Z,16.74
2019-04-29T16:08:02.001Z,16.70
2019-04-29T16:10:45.981Z,16.47
2019-04-29T16:13:14.946Z,16.22
2019-04-29T16:15:43.651Z,17.03
2019-04-29T16:18:14.718Z,17.55
2019-04-29T16:20:43.393Z,16.90
2019-04-29T16:23:12.461Z,17.35
2019-04-29T16:25:46.365Z,17.49
2019-04-29T16:28:11.783Z,16.96
2019-04-29T16:30:40.678Z,16.71
2019-04-29T16:33:14.001Z,17.19
2019-04-29T16:35:40.698Z,17.50
2019-04-29T16:38:11.695Z,17.17
2019-04-29T16:40:44.078Z,16.89
2019-04-29T16:43:27.667Z,17.02
2019-04-29T16:46:00.430Z,16.60
2019-04-29T16:48:29.323Z,16.70
2019-04-29T16:50:58.623Z,16.62
2019-04-29T16:53:28.023Z,17.16
2019-04-29T16:55:56.641Z,16.53
2019-04-29T16:58:25.602Z,16.25
2019-04-29T17:00:54.865Z,16.74
2019-04-29T17:03:24.034Z,16.35
2019-04-29T17:05:52.992Z,16.51
2019-04-29T17:08:23.336Z,16.45
2019-04-29T17:10:58.455Z,17.01
2019-04-29T17:13:27.446Z,16.53
2019-04-29T17:15:56.444Z,16.75
2019-04-29T17:18:25.339Z,16.65
2019-04-29T17:20:53.978Z,16.29
2019-04-29T17:23:24.429Z,16.41
2019-04-29T17:25:53.338Z,16.26
2019-04-29T17:28:29.105Z,16.71
2019-04-29T17:31:12.530Z,15.80
2019-04-29T17:33:59.986Z,15.97
2019-04-29T17:36:28.840Z,15.53
2019-04-29T17:38:57.831Z,15.64
2019-04-29T17:41:26.729Z,16.00
2019-04-29T17:44:14.657Z,15.63
2019-04-29T17:46:54.519Z,15.21
2019-04-29T17:49:31.968Z,15.11
2019-04-29T17:52:02.909Z,15.16
2019-04-29T17:54:36.497Z,15.17
2019-04-29T17:57:27.894Z,14.78
2019-04-29T18:00:05.077Z,14.48
2019-04-29T18:02:57.395Z,14.30
2019-04-29T18:05:34.374Z,14.12
2019-04-29T18:08:22.729Z,14.22
2019-04-29T18:10:55.711Z,13.78
2019-04-29T18:13:26.398Z,13.68
2019-04-29T18:16:01.614Z,13.55
2019-04-29T18:18:53.491Z,13.66
2019-04-29T18:21:43.261Z,13.40
2019-04-29T18:24:15.927Z,13.72
2019-04-29T18:26:52.895Z,13.56
2019-04-29T18:29:21.669Z,13.02
2019-04-29T18:31:50.296Z,12.71
2019-04-29T18:34:18.947Z,12.52
2019-04-29T18:36:47.601Z,12.39
2019-04-29T18:39:24.996Z,12.17
2019-04-29T18:41:52.609Z,12.08
2019-04-29T18:44:21.296Z,11.93
2019-04-29T18:46:53.435Z,11.95
2019-04-29T18:49:20.658Z,11.71
2019-04-29T18:51:49.954Z,11.71
2019-04-29T18:54:18.835Z,11.61
2019-04-29T18:56:47.487Z,11.52
2019-04-29T18:59:20.985Z,11.58
2019-04-29T19:01:46.817Z,11.46
2019-04-29T19:04:33.315Z,11.54
2019-04-29T19:07:02.584Z,11.34
2019-04-29T19:09:35.772Z,11.25
2019-04-29T19:12:05.316Z,11.31
2019-04-29T19:14:35.249Z,11.13
2019-04-29T19:17:05.025Z,11.15
2019-04-29T19:19:39.311Z,11.09
2019-04-29T19:22:09.364Z,11.04
2019-04-29T19:24:38.155Z,10.98
2019-04-29T19:27:09.851Z,10.94
2019-04-29T19:29:38.907Z,10.83
2019-04-29T19:32:07.753Z,11.06
2019-04-29T19:34:43.004Z,11.21
2019-04-29T19:37:07.065Z,11.29
2019-04-29T19:39:36.779Z,11.20
2019-04-29T19:42:05.782Z,10.93
2019-04-29T19:44:36.738Z,10.86
2019-04-29T19:47:06.217Z,10.78
2019-04-29T19:49:35.989Z,10.81
2019-04-29T19:52:05.027Z,10.67
2019-04-29T19:54:34.018Z,10.59
2019-04-29T19:57:06.982Z,10.80
2019-04-29T19:59:35.943Z,10.86
2019-04-29T20:02:09.498Z,10.81
2019-04-29T20:05:08.061Z,10.86
2019-04-29T20:07:41.622Z,10.58
2019-04-29T20:10:09.483Z,10.18
2019-04-29T20:12:37.811Z,10.08
2019-04-29T20:15:08.368Z,10.01
2019-04-29T20:18:00.471Z,9.87
2019-04-29T20:20:50.251Z,9.71
2019-04-29T20:23:25.100Z,9.59
2019-04-29T20:25:49.822Z,9.52
2019-04-29T20:28:21.246Z,9.39
2019-04-29T20:30:50.471Z,9.25
2019-04-29T20:33:19.722Z,9.25
2019-04-29T20:35:49.394Z,9.26
2019-04-29T20:38:19.079Z,9.24
2019-04-29T20:40:48.338Z,9.19
2019-04-29T20:43:20.869Z,9.37
2019-04-29T20:45:48.561Z,9.58
2019-04-29T20:48:19.545Z,9.80
2019-04-29T20:50:52.876Z,9.43
2019-04-29T20:53:36.084Z,9.44
2019-04-29T20:56:10.435Z,9.12
2019-04-29T20:58:33.273Z,9.02
2019-04-29T21:01:06.560Z,8.82
2019-04-29T21:03:33.145Z,8.88
2019-04-29T21:06:04.003Z,9.13
2019-04-29T21:08:32.647Z,9.25
2019-04-29T21:11:05.801Z,9.02
2019-04-29T21:13:56.000Z,9.07
2019-04-29T21:16:33.383Z,9.16
2019-04-29T21:19:08.826Z,8.82
2019-04-29T21:21:41.912Z,8.82
2019-04-29T21:24:14.083Z,8.51
2019-04-29T21:26:44.655Z,8.51
2019-04-29T21:29:10.742Z,8.28
2019-04-29T21:31:40.438Z,8.28
2019-04-29T21:34:09.334Z,8.75
2019-04-29T21:37:10.202Z,8.79
2019-04-29T21:40:01.669Z,8.57
2019-04-29T21:42:36.981Z,8.28
2019-04-29T21:45:08.685Z,8.29
2019-04-29T21:47:42.647Z,8.60
2019-04-29T21:50:07.557Z,8.60
2019-04-29T21:52:36.612Z,8.57
2019-04-29T21:55:05.664Z,8.57
2019-04-29T21:57:34.582Z,8.69
2019-04-29T22:00:05.575Z,8.69
2019-04-29T22:02:35.760Z,8.75
2019-04-29T22:05:09.497Z,8.76
2019-04-29T22:07:39.712Z,8.73
2019-04-29T22:10:06.979Z,8.63
2019-04-29T22:12:35.613Z,8.63
2019-04-29T22:15:05.876Z,8.46
2019-04-29T22:17:36.036Z,8.42
2019-04-29T22:20:09.678Z,8.18
2019-04-29T22:22:38.465Z,7.82
2019-04-29T22:25:09.982Z,7.95
2019-04-29T22:27:40.947Z,7.85
2019-04-29T22:30:16.854Z,7.34
2019-04-29T22:32:41.496Z,7.37
2019-04-29T22:35:10.583Z,7.57
2019-04-29T22:37:39.575Z,7.37
2019-04-29T22:40:08.977Z,7.53
2019-04-29T22:43:08.458Z,7.35
2019-04-29T22:45:33.972Z,7.15
2019-04-29T22:48:14.198Z,6.97
2019-04-29T22:50:33.758Z,7.05
2019-04-29T22:53:07.396Z,6.91
2019-04-29T22:55:37.102Z,7.04
2019-04-29T22:58:08.022Z,7.03
2019-04-29T23:00:36.262Z,7.02
2019-04-29T23:03:05.329Z,7.17
2019-04-29T23:05:35.676Z,7.44
2019-04-29T23:08:05.223Z,7.40
2019-04-29T23:10:35.635Z,7.42
2019-04-29T23:13:06.155Z,7.45
2019-04-29T23:15:35.826Z,7.57
2019-04-29T23:18:05.564Z,7.44
2019-04-29T23:20:52.476Z,7.48
2019-04-29T23:23:33.356Z,7.68
2019-04-29T23:25:59.984Z,7.69
2019-04-29T23:28:28.446Z,7.80
2019-04-29T23:30:57.184Z,7.90
2019-04-29T23:33:26.445Z,7.90
2019-04-29T23:35:56.100Z,8.01
2019-04-29T23:38:25.539Z,7.91
2019-04-29T23:40:56.295Z,7.94
2019-04-29T23:43:28.468Z,7.79
2019-04-29T23:46:00.216Z,7.60
2019-04-29T23:48:38.091Z,7.15
2019-04-29T23:50:58.369Z,7.07
2019-04-29T23:53:27.272Z,6.82
2019-04-29T23:56:00.279Z,6.73
2019-04-29T23:58:55.461Z,6.85
